sensor_id;sensor_type;location;lat;lon;timestamp;pressure;altitude;pressure_sealevel;temperature;humidity
37694;BME280;23531;50.122;8.644;2023-05-10T00:01:09;64050.78;;;-142.95;100.00
37694;BME280;23531;50.122;8.644;2023-05-10T00:03:10;64050.78;;;-142.95;100.00
37694;BME280;23531;50.122;8.644;2023-05-10T00:05:11;64050.78;;;-142.95;100.00
37694;BME280;23531;50.122;8.644;2023-05-10T00:07:13;64050.78;;;-142.95;100.00
37694;BME280;23531;50.122;8.644;2023-05-10T00:09:15;99764.75;;;15.97;nan
37694;BME280;23531;50.122;8.644;2023-05-10T00:11:17;99761.72;;;15.93;nan
37694;BME280;23531;50.122;8.644;2023-05-10T00:13:18;99757.38;;;15.87;nan
37694;BME280;23531;50.122;8.644;2023-05-10T00:15:19;99767.16;;;15.93;nan
37694;BME280;23531;50.122;8.644;2023-05-10T00:17:22;99763.03;;;15.86;nan
37694;BME280;23531;50.122;8.644;2023-05-10T00:19:23;99766.34;;;15.93;nan
37694;BME280;23531;50.122;8.644;2023-05-10T00:21:24;99761.97;;;15.87;nan
37694;BME280;23531;50.122;8.644;2023-05-10T00:23:26;99771.22;;;15.91;nan
37694;BME280;23531;50.122;8.644;2023-05-10T00:25:27;99764.50;;;16.04;nan
37694;BME280;23531;50.122;8.644;2023-05-10T00:27:29;99768.03;;;16.04;nan
37694;BME280;23531;50.122;8.644;2023-05-10T00:29:30;99773.44;;;15.99;nan
37694;BME280;23531;50.122;8.644;2023-05-10T00:31:31;99771.22;;;15.91;nan
37694;BME280;23531;50.122;8.644;2023-05-10T00:33:34;99770.63;;;15.84;nan
37694;BME280;23531;50.122;8.644;2023-05-10T00:35:35;99768.06;;;15.67;nan
37694;BME280;23531;50.122;8.644;2023-05-10T00:37:37;99768.97;;;15.83;nan
37694;BME280;23531;50.122;8.644;2023-05-10T00:39:39;99766.81;;;15.85;nan
37694;BME280;23531;50.122;8.644;2023-05-10T00:41:40;99765.44;;;15.77;nan
37694;BME280;23531;50.122;8.644;2023-05-10T00:43:41;99770.53;;;15.74;nan
37694;BME280;23531;50.122;8.644;2023-05-10T00:45:42;99772.09;;;15.65;nan
37694;BME280;23531;50.122;8.644;2023-05-10T00:47:44;99773.25;;;15.74;nan
37694;BME280;23531;50.122;8.644;2023-05-10T00:49:47;99779.97;;;15.66;nan
37694;BME280;23531;50.122;8.644;2023-05-10T00:51:48;99775.78;;;15.53;nan
37694;BME280;23531;50.122;8.644;2023-05-10T00:53:50;99777.91;;;15.51;nan
37694;BME280;23531;50.122;8.644;2023-05-10T00:55:52;99785.84;;;15.58;nan
37694;BME280;23531;50.122;8.644;2023-05-10T00:57:53;99779.56;;;15.52;nan
37694;BME280;23531;50.122;8.644;2023-05-10T00:59:54;99788.50;;;15.53;nan
37694;BME280;23531;50.122;8.644;2023-05-10T01:01:55;99784.97;;;15.52;nan
37694;BME280;23531;50.122;8.644;2023-05-10T01:03:57;99781.69;;;15.50;nan
37694;BME280;23531;50.122;8.644;2023-05-10T01:06:00;99792.44;;;15.40;nan
37694;BME280;23531;50.122;8.644;2023-05-10T01:08:01;99796.28;;;15.44;nan
37694;BME280;23531;50.122;8.644;2023-05-10T01:10:04;99791.59;;;15.35;nan
37694;BME280;23531;50.122;8.644;2023-05-10T01:12:05;99787.84;;;15.41;nan
37694;BME280;23531;50.122;8.644;2023-05-10T01:14:07;99785.44;;;15.44;nan
37694;BME280;23531;50.122;8.644;2023-05-10T01:16:09;99797.03;;;15.40;nan
37694;BME280;23531;50.122;8.644;2023-05-10T01:18:10;99795.00;;;15.25;nan
37694;BME280;23531;50.122;8.644;2023-05-10T01:20:11;99790.97;;;15.27;nan
37694;BME280;23531;50.122;8.644;2023-05-10T01:22:19;99793.03;;;15.47;nan
37694;BME280;23531;50.122;8.644;2023-05-10T01:24:32;99793.56;;;15.44;nan
37694;BME280;23531;50.122;8.644;2023-05-10T01:26:55;99793.69;;;15.54;nan
37694;BME280;23531;50.122;8.644;2023-05-10T01:29:13;99796.72;;;15.36;nan
37694;BME280;23531;50.122;8.644;2023-05-10T01:31:27;99795.88;;;15.31;nan
37694;BME280;23531;50.122;8.644;2023-05-10T01:33:31;99795.47;;;15.17;nan
37694;BME280;23531;50.122;8.644;2023-05-10T01:35:37;99803.19;;;15.30;nan
37694;BME280;23531;50.122;8.644;2023-05-10T01:37:40;99800.47;;;15.30;nan
37694;BME280;23531;50.122;8.644;2023-05-10T01:39:44;99807.88;;;15.40;nan
37694;BME280;23531;50.122;8.644;2023-05-10T01:41:48;99805.47;;;15.43;nan
37694;BME280;23531;50.122;8.644;2023-05-10T01:43:53;99806.59;;;15.47;nan
37694;BME280;23531;50.122;8.644;2023-05-10T01:45:58;99818.97;;;15.38;nan
37694;BME280;23531;50.122;8.644;2023-05-10T01:48:04;99808.59;;;15.30;nan
37694;BME280;23531;50.122;8.644;2023-05-10T01:50:10;99818.88;;;15.28;nan
37694;BME280;23531;50.122;8.644;2023-05-10T01:52:14;99814.53;;;15.27;nan
37694;BME280;23531;50.122;8.644;2023-05-10T01:54:17;99816.94;;;15.23;nan
37694;BME280;23531;50.122;8.644;2023-05-10T01:56:20;99815.50;;;15.16;nan
37694;BME280;23531;50.122;8.644;2023-05-10T01:58:25;99819.34;;;15.20;nan
37694;BME280;23531;50.122;8.644;2023-05-10T02:00:28;99820.97;;;15.21;nan
37694;BME280;23531;50.122;8.644;2023-05-10T02:02:30;99818.25;;;15.21;nan
37694;BME280;23531;50.122;8.644;2023-05-10T02:04:34;99813.25;;;15.35;nan
37694;BME280;23531;50.122;8.644;2023-05-10T02:06:39;99819.38;;;15.25;nan
37694;BME280;23531;50.122;8.644;2023-05-10T02:08:41;99829.22;;;15.36;nan
37694;BME280;23531;50.122;8.644;2023-05-10T02:10:44;99824.94;;;15.13;nan
37694;BME280;23531;50.122;8.644;2023-05-10T02:12:47;99832.31;;;15.18;nan
37694;BME280;23531;50.122;8.644;2023-05-10T02:14:49;99826.97;;;15.01;nan
37694;BME280;23531;50.122;8.644;2023-05-10T02:16:53;99831.59;;;15.01;nan
37694;BME280;23531;50.122;8.644;2023-05-10T02:18:56;99831.81;;;15.21;nan
37694;BME280;23531;50.122;8.644;2023-05-10T02:20:58;99826.63;;;15.19;nan
37694;BME280;23531;50.122;8.644;2023-05-10T02:23:02;99831.38;;;15.07;nan
37694;BME280;23531;50.122;8.644;2023-05-10T02:25:04;99835.03;;;14.96;nan
37694;BME280;23531;50.122;8.644;2023-05-10T02:27:07;99844.03;;;15.02;nan
37694;BME280;23531;50.122;8.644;2023-05-10T02:29:10;99844.56;;;14.99;nan
37694;BME280;23531;50.122;8.644;2023-05-10T02:31:12;99844.34;;;14.83;nan
37694;BME280;23531;50.122;8.644;2023-05-10T02:33:15;99844.44;;;14.88;nan
37694;BME280;23531;50.122;8.644;2023-05-10T02:35:16;99852.69;;;14.99;nan
37694;BME280;23531;50.122;8.644;2023-05-10T02:37:18;99852.00;;;15.13;nan
37694;BME280;23531;50.122;8.644;2023-05-10T02:39:21;99854.69;;;15.08;nan
37694;BME280;23531;50.122;8.644;2023-05-10T02:41:23;99854.00;;;14.96;nan
37694;BME280;23531;50.122;8.644;2023-05-10T02:43:26;99856.38;;;14.93;nan
37694;BME280;23531;50.122;8.644;2023-05-10T02:45:30;99851.50;;;14.89;nan
37694;BME280;23531;50.122;8.644;2023-05-10T02:47:32;99849.03;;;14.88;nan
37694;BME280;23531;50.122;8.644;2023-05-10T02:49:33;99855.94;;;14.79;nan
37694;BME280;23531;50.122;8.644;2023-05-10T02:51:35;99856.91;;;14.89;nan
37694;BME280;23531;50.122;8.644;2023-05-10T02:53:38;99857.03;;;15.00;nan
37694;BME280;23531;50.122;8.644;2023-05-10T02:55:41;99857.31;;;15.03;nan
37694;BME280;23531;50.122;8.644;2023-05-10T02:57:46;99854.34;;;15.05;nan
37694;BME280;23531;50.122;8.644;2023-05-10T02:59:49;99856.19;;;14.99;nan
37694;BME280;23531;50.122;8.644;2023-05-10T03:01:51;99853.09;;;14.90;nan
37694;BME280;23531;50.122;8.644;2023-05-10T03:03:52;99859.03;;;14.87;nan
37694;BME280;23531;50.122;8.644;2023-05-10T03:05:54;99847.31;;;14.82;nan
37694;BME280;23531;50.122;8.644;2023-05-10T03:07:55;99860.47;;;14.73;nan
37694;BME280;23531;50.122;8.644;2023-05-10T03:09:57;99861.66;;;14.82;nan
37694;BME280;23531;50.122;8.644;2023-05-10T03:12:03;99863.31;;;14.83;nan
37694;BME280;23531;50.122;8.644;2023-05-10T03:14:08;99857.03;;;14.78;nan
37694;BME280;23531;50.122;8.644;2023-05-10T03:16:12;99857.19;;;14.71;nan
37694;BME280;23531;50.122;8.644;2023-05-10T03:18:16;99863.78;;;14.80;nan
37694;BME280;23531;50.122;8.644;2023-05-10T03:20:21;99868.00;;;14.71;nan
37694;BME280;23531;50.122;8.644;2023-05-10T03:22:24;99868.25;;;14.70;nan
37694;BME280;23531;50.122;8.644;2023-05-10T03:24:27;99863.25;;;14.78;nan
37694;BME280;23531;50.122;8.644;2023-05-10T03:26:28;99872.13;;;14.96;nan
37694;BME280;23531;50.122;8.644;2023-05-10T03:28:31;99877.66;;;14.84;nan
37694;BME280;23531;50.122;8.644;2023-05-10T03:30:33;99878.91;;;14.76;nan
37694;BME280;23531;50.122;8.644;2023-05-10T03:32:35;99876.00;;;14.83;nan
37694;BME280;23531;50.122;8.644;2023-05-10T03:34:40;99879.88;;;14.87;nan
37694;BME280;23531;50.122;8.644;2023-05-10T03:36:42;99880.56;;;14.77;nan
37694;BME280;23531;50.122;8.644;2023-05-10T03:38:43;99877.53;;;14.74;nan
37694;BME280;23531;50.122;8.644;2023-05-10T03:40:44;99881.78;;;14.70;nan
37694;BME280;23531;50.122;8.644;2023-05-10T03:42:45;99886.13;;;14.71;nan
37694;BME280;23531;50.122;8.644;2023-05-10T03:44:48;99881.38;;;14.78;nan
37694;BME280;23531;50.122;8.644;2023-05-10T03:46:50;99884.22;;;14.88;nan
37694;BME280;23531;50.122;8.644;2023-05-10T03:48:51;99893.03;;;14.78;nan
37694;BME280;23531;50.122;8.644;2023-05-10T03:50:52;99888.41;;;14.79;nan
37694;BME280;23531;50.122;8.644;2023-05-10T03:52:53;99890.56;;;14.77;nan
37694;BME280;23531;50.122;8.644;2023-05-10T03:54:55;99892.22;;;14.78;nan
37694;BME280;23531;50.122;8.644;2023-05-10T03:56:56;99890.00;;;14.97;nan
37694;BME280;23531;50.122;8.644;2023-05-10T03:58:57;99892.34;;;14.88;nan
37694;BME280;23531;50.122;8.644;2023-05-10T04:01:00;99890.09;;;14.63;nan
37694;BME280;23531;50.122;8.644;2023-05-10T04:03:01;99882.72;;;14.59;nan
37694;BME280;23531;50.122;8.644;2023-05-10T04:05:02;99889.53;;;14.61;nan
37694;BME280;23531;50.122;8.644;2023-05-10T04:07:03;99891.16;;;14.62;nan
37694;BME280;23531;50.122;8.644;2023-05-10T04:09:05;99888.13;;;14.59;nan
37694;BME280;23531;50.122;8.644;2023-05-10T04:11:06;99888.38;;;14.57;nan
37694;BME280;23531;50.122;8.644;2023-05-10T04:13:08;99885.19;;;14.82;nan
37694;BME280;23531;50.122;8.644;2023-05-10T04:15:09;99887.63;;;15.00;nan
37694;BME280;23531;50.122;8.644;2023-05-10T04:17:12;99885.34;;;14.92;nan
37694;BME280;23531;50.122;8.644;2023-05-10T04:19:13;99889.06;;;14.86;nan
37694;BME280;23531;50.122;8.644;2023-05-10T04:21:14;99890.13;;;14.85;nan
37694;BME280;23531;50.122;8.644;2023-05-10T04:23:16;99890.56;;;14.77;nan
37694;BME280;23531;50.122;8.644;2023-05-10T04:25:17;99892.16;;;14.56;nan
37694;BME280;23531;50.122;8.644;2023-05-10T04:27:18;99894.84;;;14.73;nan
37694;BME280;23531;50.122;8.644;2023-05-10T04:29:20;99898.03;;;14.92;nan
37694;BME280;23531;50.122;8.644;2023-05-10T04:31:21;99888.97;;;15.03;nan
37694;BME280;23531;50.122;8.644;2023-05-10T04:33:24;99889.75;;;14.98;nan
37694;BME280;23531;50.122;8.644;2023-05-10T04:35:25;99896.56;;;15.01;nan
37694;BME280;23531;50.122;8.644;2023-05-10T04:37:27;99898.63;;;14.94;nan
37694;BME280;23531;50.122;8.644;2023-05-10T04:39:28;99904.63;;;14.79;nan
37694;BME280;23531;50.122;8.644;2023-05-10T04:41:29;99900.69;;;14.65;nan
37694;BME280;23531;50.122;8.644;2023-05-10T04:43:31;99898.78;;;14.65;nan
37694;BME280;23531;50.122;8.644;2023-05-10T04:45:32;99909.88;;;14.85;nan
37694;BME280;23531;50.122;8.644;2023-05-10T04:47:33;99911.53;;;14.86;nan
37694;BME280;23531;50.122;8.644;2023-05-10T04:49:36;99913.16;;;14.87;nan
37694;BME280;23531;50.122;8.644;2023-05-10T04:51:37;99918.78;;;15.03;nan
37694;BME280;23531;50.122;8.644;2023-05-10T04:53:38;99922.00;;;15.00;nan
37694;BME280;23531;50.122;8.644;2023-05-10T04:55:39;99914.09;;;14.76;nan
37694;BME280;23531;50.122;8.644;2023-05-10T04:57:41;99921.34;;;14.93;nan
37694;BME280;23531;50.122;8.644;2023-05-10T04:59:42;99931.41;;;14.75;nan
37694;BME280;23531;50.122;8.644;2023-05-10T05:01:43;99918.25;;;14.84;nan
37694;BME280;23531;50.122;8.644;2023-05-10T05:03:44;99920.94;;;15.01;nan
37694;BME280;23531;50.122;8.644;2023-05-10T05:05:47;99921.19;;;14.99;nan
37694;BME280;23531;50.122;8.644;2023-05-10T05:07:48;99916.88;;;14.81;nan
37694;BME280;23531;50.122;8.644;2023-05-10T05:09:49;99921.22;;;14.82;nan
37694;BME280;23531;50.122;8.644;2023-05-10T05:11:51;99926.84;;;14.98;nan
37694;BME280;23531;50.122;8.644;2023-05-10T05:13:52;99929.06;;;15.01;nan
37694;BME280;23531;50.122;8.644;2023-05-10T05:15:53;99922.53;;;15.02;nan
37694;BME280;23531;50.122;8.644;2023-05-10T05:17:55;99926.84;;;14.98;nan
37694;BME280;23531;50.122;8.644;2023-05-10T05:19:56;99928.75;;;14.80;nan
37694;BME280;23531;50.122;8.644;2023-05-10T05:21:59;99932.22;;;14.76;nan
37694;BME280;23531;50.122;8.644;2023-05-10T05:24:00;99928.94;;;14.74;nan
37694;BME280;23531;50.122;8.644;2023-05-10T05:26:01;99929.53;;;14.76;nan
37694;BME280;23531;50.122;8.644;2023-05-10T05:28:03;99940.66;;;14.79;nan
37694;BME280;23531;50.122;8.644;2023-05-10T05:30:04;99935.22;;;14.79;nan
37694;BME280;23531;50.122;8.644;2023-05-10T05:32:06;99938.97;;;14.95;nan
37694;BME280;23531;50.122;8.644;2023-05-10T05:34:08;99936.28;;;14.95;nan
37694;BME280;23531;50.122;8.644;2023-05-10T05:36:09;99929.59;;;15.03;nan
37694;BME280;23531;50.122;8.644;2023-05-10T05:38:12;99938.59;;;14.86;nan
37694;BME280;23531;50.122;8.644;2023-05-10T05:40:13;99933.34;;;14.80;nan
37694;BME280;23531;50.122;8.644;2023-05-10T05:42:14;99934.03;;;14.70;nan
37694;BME280;23531;50.122;8.644;2023-05-10T05:44:17;99936.81;;;14.75;nan
37694;BME280;23531;50.122;8.644;2023-05-10T05:46:18;99944.63;;;14.94;nan
37694;BME280;23531;50.122;8.644;2023-05-10T05:48:20;99942.06;;;15.04;nan
37694;BME280;23531;50.122;8.644;2023-05-10T05:50:21;99942.84;;;14.99;nan
37694;BME280;23531;50.122;8.644;2023-05-10T05:52:22;99940.03;;;14.94;nan
37694;BME280;23531;50.122;8.644;2023-05-10T05:54:25;99952.19;;;14.92;nan
37694;BME280;23531;50.122;8.644;2023-05-10T05:56:26;99948.75;;;14.96;nan
37694;BME280;23531;50.122;8.644;2023-05-10T05:58:27;99950.66;;;14.79;nan
37694;BME280;23531;50.122;8.644;2023-05-10T06:00:29;99954.25;;;14.84;nan
37694;BME280;23531;50.122;8.644;2023-05-10T06:02:30;99953.34;;;14.96;nan
37694;BME280;23531;50.122;8.644;2023-05-10T06:04:31;99954.72;;;14.98;nan
37694;BME280;23531;50.122;8.644;2023-05-10T06:06:34;99949.19;;;14.88;nan
37694;BME280;23531;50.122;8.644;2023-05-10T06:08:36;99954.06;;;14.91;nan
37694;BME280;23531;50.122;8.644;2023-05-10T06:10:38;99969.97;;;15.04;nan
37694;BME280;23531;50.122;8.644;2023-05-10T06:12:39;99970.06;;;14.93;nan
37694;BME280;23531;50.122;8.644;2023-05-10T06:14:41;99967.13;;;14.94;nan
37694;BME280;23531;50.122;8.644;2023-05-10T06:16:42;99970.66;;;14.95;nan
37694;BME280;23531;50.122;8.644;2023-05-10T06:18:44;99970.59;;;14.89;nan
37694;BME280;23531;50.122;8.644;2023-05-10T06:20:45;99974.06;;;15.07;nan
37694;BME280;23531;50.122;8.644;2023-05-10T06:22:46;99980.63;;;15.11;nan
37694;BME280;23531;50.122;8.644;2023-05-10T06:24:47;99980.88;;;15.09;nan
37694;BME280;23531;50.122;8.644;2023-05-10T06:26:50;99978.47;;;15.13;nan
37694;BME280;23531;50.122;8.644;2023-05-10T06:28:51;99985.59;;;15.19;nan
37694;BME280;23531;50.122;8.644;2023-05-10T06:30:53;99974.09;;;15.29;nan
37694;BME280;23531;50.122;8.644;2023-05-10T06:32:54;99983.47;;;15.21;nan
37694;BME280;23531;50.122;8.644;2023-05-10T06:34:55;99987.50;;;15.18;nan
37694;BME280;23531;50.122;8.644;2023-05-10T06:36:57;99988.56;;;15.17;nan
37694;BME280;23531;50.122;8.644;2023-05-10T06:38:58;99986.59;;;15.13;nan
37694;BME280;23531;50.122;8.644;2023-05-10T06:40:59;99990.44;;;15.17;nan
37694;BME280;23531;50.122;8.644;2023-05-10T06:43:02;99996.00;;;15.27;nan
37694;BME280;23531;50.122;8.644;2023-05-10T06:45:07;99992.78;;;15.30;nan
37694;BME280;23531;50.122;8.644;2023-05-10T06:47:09;99990.72;;;15.37;nan
37694;BME280;23531;50.122;8.644;2023-05-10T06:49:10;99995.38;;;15.42;nan
37694;BME280;23531;50.122;8.644;2023-05-10T06:51:11;99997.88;;;15.48;nan
37694;BME280;23531;50.122;8.644;2023-05-10T06:53:15;99998.97;;;15.47;nan
37694;BME280;23531;50.122;8.644;2023-05-10T06:55:16;100000.56;;;15.43;nan
37694;BME280;23531;50.122;8.644;2023-05-10T06:57:18;99991.16;;;15.51;nan
37694;BME280;23531;50.122;8.644;2023-05-10T06:59:21;99999.44;;;15.61;nan
37694;BME280;23531;50.122;8.644;2023-05-10T07:01:22;99989.53;;;15.72;nan
37694;BME280;23531;50.122;8.644;2023-05-10T07:03:23;100001.66;;;15.64;nan
37694;BME280;23531;50.122;8.644;2023-05-10T07:05:25;100010.34;;;15.66;nan
37694;BME280;23531;50.122;8.644;2023-05-10T07:07:27;100006.00;;;15.92;nan
37694;BME280;23531;50.122;8.644;2023-05-10T07:09:29;100003.56;;;16.17;nan
37694;BME280;23531;50.122;8.644;2023-05-10T07:11:30;100006.44;;;16.06;nan
37694;BME280;23531;50.122;8.644;2023-05-10T07:13:31;100006.13;;;16.02;nan
37694;BME280;23531;50.122;8.644;2023-05-10T07:15:34;100014.53;;;16.01;nan
37694;BME280;23531;50.122;8.644;2023-05-10T07:17:35;100019.31;;;15.93;nan
37694;BME280;23531;50.122;8.644;2023-05-10T07:19:37;100016.34;;;15.95;nan
37694;BME280;23531;50.122;8.644;2023-05-10T07:21:38;100014.72;;;15.94;nan
37694;BME280;23531;50.122;8.644;2023-05-10T07:23:40;100019.38;;;15.98;nan
37694;BME280;23531;50.122;8.644;2023-05-10T07:25:41;100016.16;;;16.02;nan
37694;BME280;23531;50.122;8.644;2023-05-10T07:27:43;100025.66;;;15.77;nan
37694;BME280;23531;50.122;8.644;2023-05-10T07:29:44;100026.75;;;15.81;nan
37694;BME280;23531;50.122;8.644;2023-05-10T07:31:46;100024.13;;;15.86;nan
37694;BME280;23531;50.122;8.644;2023-05-10T07:33:48;100015.53;;;15.94;nan
37694;BME280;23531;50.122;8.644;2023-05-10T07:35:49;100026.94;;;15.96;nan
37694;BME280;23531;50.122;8.644;2023-05-10T07:37:50;100025.38;;;16.01;nan
37694;BME280;23531;50.122;8.644;2023-05-10T07:39:52;100024.81;;;15.98;nan
37694;BME280;23531;50.122;8.644;2023-05-10T07:41:53;100036.38;;;15.89;nan
37694;BME280;23531;50.122;8.644;2023-05-10T07:43:54;100028.41;;;15.82;nan
37694;BME280;23531;50.122;8.644;2023-05-10T07:45:55;100032.06;;;15.93;nan
37694;BME280;23531;50.122;8.644;2023-05-10T07:47:58;100028.00;;;15.95;nan
37694;BME280;23531;50.122;8.644;2023-05-10T07:50:00;100032.16;;;16.03;nan
37694;BME280;23531;50.122;8.644;2023-05-10T07:52:02;100034.56;;;16.00;nan
37694;BME280;23531;50.122;8.644;2023-05-10T07:54:03;100036.00;;;16.07;nan
37694;BME280;23531;50.122;8.644;2023-05-10T07:56:19;100029.44;;;16.03;nan
37694;BME280;23531;50.122;8.644;2023-05-10T07:58:21;100039.53;;;16.08;nan
37694;BME280;23531;50.122;8.644;2023-05-10T08:00:22;100037.31;;;16.05;nan
37694;BME280;23531;50.122;8.644;2023-05-10T08:02:24;100032.00;;;16.15;nan
37694;BME280;23531;50.122;8.644;2023-05-10T08:04:26;100038.88;;;16.22;nan
37694;BME280;23531;50.122;8.644;2023-05-10T08:06:27;100037.44;;;16.15;nan
37694;BME280;23531;50.122;8.644;2023-05-10T08:08:29;100031.72;;;16.11;nan
37694;BME280;23531;50.122;8.644;2023-05-10T08:10:31;100038.34;;;16.25;nan
37694;BME280;23531;50.122;8.644;2023-05-10T08:12:32;100037.72;;;16.13;nan
37694;BME280;23531;50.122;8.644;2023-05-10T08:14:33;100043.25;;;16.23;nan
37694;BME280;23531;50.122;8.644;2023-05-10T08:16:36;100047.88;;;16.28;nan
37694;BME280;23531;50.122;8.644;2023-05-10T08:18:37;100039.44;;;16.24;nan
37694;BME280;23531;50.122;8.644;2023-05-10T08:20:40;100033.56;;;16.32;nan
37694;BME280;23531;50.122;8.644;2023-05-10T08:22:41;100040.22;;;16.47;nan
37694;BME280;23531;50.122;8.644;2023-05-10T08:24:42;100036.22;;;16.59;nan
37694;BME280;23531;50.122;8.644;2023-05-10T08:26:43;100040.47;;;16.50;nan
37694;BME280;23531;50.122;8.644;2023-05-10T08:28:45;100037.50;;;16.52;nan
37694;BME280;23531;50.122;8.644;2023-05-10T08:30:46;100037.94;;;16.65;nan
37694;BME280;23531;50.122;8.644;2023-05-10T08:32:47;100045.31;;;16.70;nan
37694;BME280;23531;50.122;8.644;2023-05-10T08:34:48;100039.91;;;16.70;nan
37694;BME280;23531;50.122;8.644;2023-05-10T08:36:51;100040.41;;;16.40;nan
37694;BME280;23531;50.122;8.644;2023-05-10T08:38:52;100048.19;;;16.31;nan
37694;BME280;23531;50.122;8.644;2023-05-10T08:40:54;100054.75;;;16.36;nan
37694;BME280;23531;50.122;8.644;2023-05-10T08:42:58;100048.28;;;16.42;nan
37694;BME280;23531;50.122;8.644;2023-05-10T08:45:05;100051.66;;;16.54;nan
37694;BME280;23531;50.122;8.644;2023-05-10T08:47:07;100045.47;;;16.58;nan
37694;BME280;23531;50.122;8.644;2023-05-10T08:49:10;100052.09;;;16.67;nan
37694;BME280;23531;50.122;8.644;2023-05-10T08:51:14;100055.22;;;16.59;nan
37694;BME280;23531;50.122;8.644;2023-05-10T08:53:17;100057.69;;;16.61;nan
37694;BME280;23531;50.122;8.644;2023-05-10T08:55:20;100046.78;;;16.56;nan
37694;BME280;23531;50.122;8.644;2023-05-10T08:57:23;100049.63;;;16.66;nan
37694;BME280;23531;50.122;8.644;2023-05-10T08:59:24;100057.78;;;16.71;nan
37694;BME280;23531;50.122;8.644;2023-05-10T09:01:25;100060.78;;;16.69;nan
37694;BME280;23531;50.122;8.644;2023-05-10T09:03:27;100063.75;;;16.68;nan
37694;BME280;23531;50.122;8.644;2023-05-10T09:05:29;100058.59;;;16.66;nan
37694;BME280;23531;50.122;8.644;2023-05-10T09:07:30;100070.72;;;16.59;nan
37694;BME280;23531;50.122;8.644;2023-05-10T09:09:33;100074.75;;;16.56;nan
37694;BME280;23531;50.122;8.644;2023-05-10T09:11:34;100075.56;;;16.57;nan
37694;BME280;23531;50.122;8.644;2023-05-10T09:13:36;100075.13;;;16.65;nan
37694;BME280;23531;50.122;8.644;2023-05-10T09:15:37;100080.91;;;16.74;nan
37694;BME280;23531;50.122;8.644;2023-05-10T09:17:38;100074.66;;;16.73;nan
37694;BME280;23531;50.122;8.644;2023-05-10T09:19:41;100073.88;;;16.78;nan
37694;BME280;23531;50.122;8.644;2023-05-10T09:21:42;100070.72;;;16.91;nan
37694;BME280;23531;50.122;8.644;2023-05-10T09:23:44;100075.91;;;16.92;nan
37694;BME280;23531;50.122;8.644;2023-05-10T09:25:48;100079.22;;;16.99;nan
37694;BME280;23531;50.122;8.644;2023-05-10T09:27:49;100080.94;;;17.16;nan
37694;BME280;23531;50.122;8.644;2023-05-10T09:29:51;100077.16;;;17.17;nan
37694;BME280;23531;50.122;8.644;2023-05-10T09:31:54;100075.78;;;17.14;nan
37694;BME280;23531;50.122;8.644;2023-05-10T09:33:55;100078.19;;;17.11;nan
37694;BME280;23531;50.122;8.644;2023-05-10T09:36:05;100081.41;;;17.02;nan
37694;BME280;23531;50.122;8.644;2023-05-10T09:38:07;100081.66;;;17.01;nan
37694;BME280;23531;50.122;8.644;2023-05-10T09:40:11;100084.06;;;16.92;nan
37694;BME280;23531;50.122;8.644;2023-05-10T09:42:14;100082.44;;;16.96;nan
37694;BME280;23531;50.122;8.644;2023-05-10T09:44:19;100087.44;;;17.10;nan
37694;BME280;23531;50.122;8.644;2023-05-10T09:46:21;100088.56;;;17.14;nan
37694;BME280;23531;50.122;8.644;2023-05-10T09:48:23;100092.97;;;17.25;nan
37694;BME280;23531;50.122;8.644;2023-05-10T09:50:26;100085.44;;;17.37;nan
37694;BME280;23531;50.122;8.644;2023-05-10T09:52:27;100077.34;;;17.47;nan
37694;BME280;23531;50.122;8.644;2023-05-10T09:54:28;100083.94;;;17.61;nan
37694;BME280;23531;50.122;8.644;2023-05-10T09:56:32;100088.91;;;17.69;nan
37694;BME280;23531;50.122;8.644;2023-05-10T09:58:37;100083.47;;;17.69;nan
37694;BME280;23531;50.122;8.644;2023-05-10T10:00:39;100086.75;;;17.71;nan
37694;BME280;23531;50.122;8.644;2023-05-10T10:02:41;100095.69;;;17.67;nan
37694;BME280;23531;50.122;8.644;2023-05-10T10:04:42;100096.44;;;17.57;nan
37694;BME280;23531;50.122;8.644;2023-05-10T10:06:43;100098.88;;;17.59;nan
37694;BME280;23531;50.122;8.644;2023-05-10T10:08:45;100111.00;;;17.36;nan
37694;BME280;23531;50.122;8.644;2023-05-10T10:10:47;100100.00;;;17.21;nan
37694;BME280;23531;50.122;8.644;2023-05-10T10:12:48;100108.09;;;17.16;nan
37694;BME280;23531;50.122;8.644;2023-05-10T10:14:51;100107.91;;;17.27;nan
37694;BME280;23531;50.122;8.644;2023-05-10T10:16:52;100108.31;;;17.04;nan
37694;BME280;23531;50.122;8.644;2023-05-10T10:18:53;100111.09;;;16.82;nan
37694;BME280;23531;50.122;8.644;2023-05-10T10:20:55;100110.25;;;16.77;nan
37694;BME280;23531;50.122;8.644;2023-05-10T10:22:56;100104.59;;;16.83;nan
37694;BME280;23531;50.122;8.644;2023-05-10T10:24:58;100106.63;;;16.98;nan
37694;BME280;23531;50.122;8.644;2023-05-10T10:27:01;100109.94;;;17.05;nan
37694;BME280;23531;50.122;8.644;2023-05-10T10:29:07;100117.00;;;17.06;nan
37694;BME280;23531;50.122;8.644;2023-05-10T10:31:15;100113.03;;;17.19;nan
37694;BME280;23531;50.122;8.644;2023-05-10T10:33:30;100114.97;;;17.23;nan
37694;BME280;23531;50.122;8.644;2023-05-10T10:35:34;100111.81;;;17.36;nan
37694;BME280;23531;50.122;8.644;2023-05-10T10:37:45;100117.19;;;17.26;nan
37694;BME280;23531;50.122;8.644;2023-05-10T10:39:47;100106.97;;;17.06;nan
37694;BME280;23531;50.122;8.644;2023-05-10T10:41:50;100119.03;;;17.21;nan
37694;BME280;23531;50.122;8.644;2023-05-10T10:44:06;100118.72;;;17.17;nan
37694;BME280;23531;50.122;8.644;2023-05-10T10:46:24;100117.81;;;17.06;nan
37694;BME280;23531;50.122;8.644;2023-05-10T10:48:25;100121.34;;;17.07;nan
37694;BME280;23531;50.122;8.644;2023-05-10T10:50:27;100128.75;;;17.12;nan
37694;BME280;23531;50.122;8.644;2023-05-10T10:52:30;100124.78;;;17.24;nan
37694;BME280;23531;50.122;8.644;2023-05-10T10:54:33;100120.09;;;17.15;nan
37694;BME280;23531;50.122;8.644;2023-05-10T10:56:36;100122.97;;;17.03;nan
37694;BME280;23531;50.122;8.644;2023-05-10T10:58:37;100118.63;;;17.02;nan
37694;BME280;23531;50.122;8.644;2023-05-10T11:00:39;100124.94;;;17.13;nan
37694;BME280;23531;50.122;8.644;2023-05-10T11:02:45;100117.94;;;17.22;nan